sensor_id;sensor_type;location;lat;lon;timestamp;P1;durP1;ratioP1;P2;durP2;ratioP2
23015;SDS011;11674;52.428;13.584;2023-06-22T00:02:29;15.55;;;11.80;;
23015;SDS011;11674;52.428;13.584;2023-06-22T00:07:36;14.60;;;12.32;;
23015;SDS011;11674;52.428;13.584;2023-06-22T00:12:43;14.35;;;11.18;;
23015;SDS011;11674;52.428;13.584;2023-06-22T00:17:50;18.08;;;12.15;;
23015;SDS011;11674;52.428;13.584;2023-06-22T00:22:57;14.98;;;12.68;;
23015;SDS011;11674;52.428;13.584;2023-06-22T00:28:05;18.00;;;13.10;;
23015;SDS011;11674;52.428;13.584;2023-06-22T00:33:13;14.52;;;12.50;;
23015;SDS011;11674;52.428;13.584;2023-06-22T00:38:20;16.73;;;11.88;;
23015;SDS011;11674;52.428;13.584;2023-06-22T00:43:27;20.05;;;12.88;;
23015;SDS011;11674;52.428;13.584;2023-06-22T00:48:36;17.10;;;12.60;;
23015;SDS011;11674;52.428;13.584;2023-06-22T00:53:43;14.25;;;12.10;;
23015;SDS011;11674;52.428;13.584;2023-06-22T00:58:50;14.63;;;12.60;;
23015;SDS011;11674;52.428;13.584;2023-06-22T01:03:57;18.35;;;12.75;;
23015;SDS011;11674;52.428;13.584;2023-06-22T01:09:39;15.32;;;12.30;;
23015;SDS011;11674;52.428;13.584;2023-06-22T01:14:43;18.13;;;12.18;;
23015;SDS011;11674;52.428;13.584;2023-06-22T01:19:57;15.70;;;12.55;;
23015;SDS011;11674;52.428;13.584;2023-06-22T01:25:11;15.18;;;12.07;;
23015;SDS011;11674;52.428;13.584;2023-06-22T01:30:20;17.73;;;12.57;;
23015;SDS011;11674;52.428;13.584;2023-06-22T01:35:26;14.85;;;12.25;;
23015;SDS011;11674;52.428;13.584;2023-06-22T01:40:34;12.95;;;11.32;;
23015;SDS011;11674;52.428;13.584;2023-06-22T01:45:43;19.02;;;14.63;;
23015;SDS011;11674;52.428;13.584;2023-06-22T01:50:50;16.55;;;12.27;;
23015;SDS011;11674;52.428;13.584;2023-06-22T01:55:57;14.63;;;11.90;;
23015;SDS011;11674;52.428;13.584;2023-06-22T02:01:12;16.17;;;11.32;;
23015;SDS011;11674;52.428;13.584;2023-06-22T02:06:21;14.30;;;11.48;;
23015;SDS011;11674;52.428;13.584;2023-06-22T02:11:33;13.20;;;11.18;;
23015;SDS011;11674;52.428;13.584;2023-06-22T02:16:41;17.60;;;11.95;;
23015;SDS011;11674;52.428;13.584;2023-06-22T02:21:49;14.77;;;12.10;;
23015;SDS011;11674;52.428;13.584;2023-06-22T02:26:57;15.93;;;13.35;;
23015;SDS011;11674;52.428;13.584;2023-06-22T02:32:06;16.02;;;12.82;;
23015;SDS011;11674;52.428;13.584;2023-06-22T02:37:13;14.30;;;12.55;;
23015;SDS011;11674;52.428;13.584;2023-06-22T02:42:20;15.07;;;11.88;;
23015;SDS011;11674;52.428;13.584;2023-06-22T02:47:27;14.32;;;11.55;;
23015;SDS011;11674;52.428;13.584;2023-06-22T02:52:34;19.00;;;12.02;;
23015;SDS011;11674;52.428;13.584;2023-06-22T02:57:41;15.10;;;12.38;;
23015;SDS011;11674;52.428;13.584;2023-06-22T03:02:50;16.67;;;11.70;;
23015;SDS011;11674;52.428;13.584;2023-06-22T03:08:03;15.48;;;12.27;;
23015;SDS011;11674;52.428;13.584;2023-06-22T03:13:10;15.10;;;12.25;;
23015;SDS011;11674;52.428;13.584;2023-06-22T03:18:17;15.02;;;12.35;;
23015;SDS011;11674;52.428;13.584;2023-06-22T03:23:24;16.90;;;12.80;;
23015;SDS011;11674;52.428;13.584;2023-06-22T03:28:31;15.23;;;13.18;;
23015;SDS011;11674;52.428;13.584;2023-06-22T03:33:38;16.50;;;12.88;;
23015;SDS011;11674;52.428;13.584;2023-06-22T03:38:49;18.83;;;13.15;;
23015;SDS011;11674;52.428;13.584;2023-06-22T03:43:57;15.65;;;13.20;;
23015;SDS011;11674;52.428;13.584;2023-06-22T03:49:03;16.90;;;12.73;;
23015;SDS011;11674;52.428;13.584;2023-06-22T03:54:10;20.42;;;13.65;;
23015;SDS011;11674;52.428;13.584;2023-06-22T03:59:17;16.75;;;13.05;;
23015;SDS011;11674;52.428;13.584;2023-06-22T04:04:24;19.65;;;13.30;;
23015;SDS011;11674;52.428;13.584;2023-06-22T04:09:31;15.32;;;12.88;;
23015;SDS011;11674;52.428;13.584;2023-06-22T04:14:38;14.45;;;12.15;;
23015;SDS011;11674;52.428;13.584;2023-06-22T04:19:45;14.55;;;11.15;;
23015;SDS011;11674;52.428;13.584;2023-06-22T04:24:52;16.27;;;10.77;;
23015;SDS011;11674;52.428;13.584;2023-06-22T04:29:59;13.52;;;10.27;;
23015;SDS011;11674;52.428;13.584;2023-06-22T04:35:06;13.90;;;9.82;;
23015;SDS011;11674;52.428;13.584;2023-06-22T04:40:13;11.23;;;8.95;;
23015;SDS011;11674;52.428;13.584;2023-06-22T04:45:20;11.93;;;8.57;;
23015;SDS011;11674;52.428;13.584;2023-06-22T04:50:27;10.75;;;8.18;;
23015;SDS011;11674;52.428;13.584;2023-06-22T04:55:34;10.77;;;8.10;;
23015;SDS011;11674;52.428;13.584;2023-06-22T05:00:41;13.25;;;7.65;;
23015;SDS011;11674;52.428;13.584;2023-06-22T05:05:48;8.10;;;6.72;;
23015;SDS011;11674;52.428;13.584;2023-06-22T05:10:55;10.80;;;7.15;;
23015;SDS011;11674;52.428;13.584;2023-06-22T05:16:02;11.05;;;6.88;;
23015;SDS011;11674;52.428;13.584;2023-06-22T05:21:09;6.90;;;5.85;;
23015;SDS011;11674;52.428;13.584;2023-06-22T05:26:17;7.25;;;6.43;;
23015;SDS011;11674;52.428;13.584;2023-06-22T05:31:24;7.88;;;6.15;;
23015;SDS011;11674;52.428;13.584;2023-06-22T05:36:31;7.68;;;6.32;;
23015;SDS011;11674;52.428;13.584;2023-06-22T05:41:38;11.57;;;5.90;;
23015;SDS011;11674;52.428;13.584;2023-06-22T05:46:45;8.52;;;5.40;;
23015;SDS011;11674;52.428;13.584;2023-06-22T05:51:52;6.38;;;4.68;;
23015;SDS011;11674;52.428;13.584;2023-06-22T05:56:59;7.75;;;5.35;;
23015;SDS011;11674;52.428;13.584;2023-06-22T06:02:06;9.63;;;4.90;;
23015;SDS011;11674;52.428;13.584;2023-06-22T06:07:13;8.13;;;5.38;;
23015;SDS011;11674;52.428;13.584;2023-06-22T06:12:20;6.80;;;5.07;;
23015;SDS011;11674;52.428;13.584;2023-06-22T06:17:27;5.05;;;4.47;;
23015;SDS011;11674;52.428;13.584;2023-06-22T06:22:44;6.60;;;4.75;;
23015;SDS011;11674;52.428;13.584;2023-06-22T06:27:51;7.28;;;4.55;;
23015;SDS011;11674;52.428;13.584;2023-06-22T06:32:58;6.70;;;4.40;;
23015;SDS011;11674;52.428;13.584;2023-06-22T06:38:05;6.75;;;4.82;;
23015;SDS011;11674;52.428;13.584;2023-06-22T06:43:12;6.20;;;4.40;;
23015;SDS011;11674;52.428;13.584;2023-06-22T06:48:19;6.88;;;4.22;;
23015;SDS011;11674;52.428;13.584;2023-06-22T06:53:26;6.00;;;3.83;;
23015;SDS011;11674;52.428;13.584;2023-06-22T06:58:33;6.13;;;3.78;;
23015;SDS011;11674;52.428;13.584;2023-06-22T07:03:40;6.45;;;3.78;;
23015;SDS011;11674;52.428;13.584;2023-06-22T07:08:47;6.75;;;3.53;;
23015;SDS011;11674;52.428;13.584;2023-06-22T07:13:54;7.68;;;5.68;;
23015;SDS011;11674;52.428;13.584;2023-06-22T07:19:01;7.57;;;5.72;;
23015;SDS011;11674;52.428;13.584;2023-06-22T07:24:15;11.10;;;5.30;;
23015;SDS011;11674;52.428;13.584;2023-06-22T07:29:22;7.47;;;4.45;;
23015;SDS011;11674;52.428;13.584;2023-06-22T07:34:29;5.55;;;3.33;;
23015;SDS011;11674;52.428;13.584;2023-06-22T07:39:36;4.85;;;3.25;;
23015;SDS011;11674;52.428;13.584;2023-06-22T07:44:43;5.00;;;3.92;;
23015;SDS011;11674;52.428;13.584;2023-06-22T07:49:50;4.25;;;3.00;;
23015;SDS011;11674;52.428;13.584;2023-06-22T07:54:57;5.90;;;3.47;;
23015;SDS011;11674;52.428;13.584;2023-06-22T08:00:05;7.50;;;3.38;;
23015;SDS011;11674;52.428;13.584;2023-06-22T08:05:13;11.18;;;7.80;;
23015;SDS011;11674;52.428;13.584;2023-06-22T08:10:21;4.50;;;3.15;;
23015;SDS011;11674;52.428;13.584;2023-06-22T08:15:28;7.90;;;3.58;;
23015;SDS011;11674;52.428;13.584;2023-06-22T08:20:35;5.43;;;2.72;;
23015;SDS011;11674;52.428;13.584;2023-06-22T08:25:42;16.30;;;5.20;;
23015;SDS011;11674;52.428;13.584;2023-06-22T08:30:49;7.35;;;2.72;;
23015;SDS011;11674;52.428;13.584;2023-06-22T08:35:57;4.28;;;3.38;;
23015;SDS011;11674;52.428;13.584;2023-06-22T08:41:04;5.13;;;2.50;;
23015;SDS011;11674;52.428;13.584;2023-06-22T08:46:11;2.55;;;2.10;;
23015;SDS011;11674;52.428;13.584;2023-06-22T08:51:18;13.02;;;9.00;;
23015;SDS011;11674;52.428;13.584;2023-06-22T08:56:25;4.60;;;2.53;;
23015;SDS011;11674;52.428;13.584;2023-06-22T09:01:32;6.15;;;2.38;;
23015;SDS011;11674;52.428;13.584;2023-06-22T09:06:39;3.53;;;2.22;;
23015;SDS011;11674;52.428;13.584;2023-06-22T09:11:47;2.85;;;2.05;;
23015;SDS011;11674;52.428;13.584;2023-06-22T09:16:54;4.68;;;2.50;;
23015;SDS011;11674;52.428;13.584;2023-06-22T09:22:00;4.70;;;2.63;;
23015;SDS011;11674;52.428;13.584;2023-06-22T09:27:07;2.85;;;2.30;;
23015;SDS011;11674;52.428;13.584;2023-06-22T09:32:14;7.68;;;5.85;;
23015;SDS011;11674;52.428;13.584;2023-06-22T09:37:21;3.33;;;2.05;;
23015;SDS011;11674;52.428;13.584;2023-06-22T09:42:28;7.60;;;2.92;;
23015;SDS011;11674;52.428;13.584;2023-06-22T09:47:36;3.78;;;2.47;;
23015;SDS011;11674;52.428;13.584;2023-06-22T09:52:42;3.35;;;2.20;;
23015;SDS011;11674;52.428;13.584;2023-06-22T09:57:49;4.38;;;2.20;;
23015;SDS011;11674;52.428;13.584;2023-06-22T10:02:57;2.92;;;2.30;;
23015;SDS011;11674;52.428;13.584;2023-06-22T10:08:03;8.25;;;5.90;;
23015;SDS011;11674;52.428;13.584;2023-06-22T10:13:11;6.32;;;4.32;;
23015;SDS011;11674;52.428;13.584;2023-06-22T10:18:18;2.92;;;2.17;;
23015;SDS011;11674;52.428;13.584;2023-06-22T10:23:24;8.27;;;5.25;;
23015;SDS011;11674;52.428;13.584;2023-06-22T10:28:31;3.33;;;2.10;;
23015;SDS011;11674;52.428;13.584;2023-06-22T10:33:38;8.88;;;5.63;;
23015;SDS011;11674;52.428;13.584;2023-06-22T10:38:45;5.32;;;3.30;;
23015;SDS011;11674;52.428;13.584;2023-06-22T10:43:53;3.78;;;2.28;;
23015;SDS011;11674;52.428;13.584;2023-06-22T10:48:59;10.23;;;6.95;;
23015;SDS011;11674;52.428;13.584;2023-06-22T10:54:06;19.73;;;12.32;;
23015;SDS011;11674;52.428;13.584;2023-06-22T10:59:13;9.43;;;5.53;;
23015;SDS011;11674;52.428;13.584;2023-06-22T11:04:20;8.63;;;6.03;;
23015;SDS011;11674;52.428;13.584;2023-06-22T11:09:28;3.42;;;2.40;;
23015;SDS011;11674;52.428;13.584;2023-06-22T11:14:35;2.45;;;2.08;;
23015;SDS011;11674;52.428;13.584;2023-06-22T11:19:41;4.97;;;2.65;;
23015;SDS011;11674;52.428;13.584;2023-06-22T11:24:49;3.40;;;2.50;;
23015;SDS011;11674;52.428;13.584;2023-06-22T11:29:55;3.85;;;2.42;;
23015;SDS011;11674;52.428;13.584;2023-06-22T11:35:03;10.32;;;4.13;;
23015;SDS011;11674;52.428;13.584;2023-06-22T11:40:10;5.63;;;2.40;;
23015;SDS011;11674;52.428;13.584;2023-06-22T11:45:17;4.40;;;2.08;;
23015;SDS011;11674;52.428;13.584;2023-06-22T11:50:23;4.40;;;2.13;;
23015;SDS011;11674;52.428;13.584;2023-06-22T11:55:31;4.95;;;2.42;;
23015;SDS011;11674;52.428;13.584;2023-06-22T12:00:38;3.88;;;2.45;;
23015;SDS011;11674;52.428;13.584;2023-06-22T12:05:45;3.22;;;2.67;;
23015;SDS011;11674;52.428;13.584;2023-06-22T12:10:52;6.88;;;4.80;;
23015;SDS011;11674;52.428;13.584;2023-06-22T12:15:59;4.32;;;3.22;;
23015;SDS011;11674;52.428;13.584;2023-06-22T12:21:06;3.08;;;2.42;;
23015;SDS011;11674;52.428;13.584;2023-06-22T12:26:13;6.15;;;2.47;;
23015;SDS011;11674;52.428;13.584;2023-06-22T12:31:20;3.28;;;2.72;;
23015;SDS011;11674;52.428;13.584;2023-06-22T12:36:27;6.00;;;2.97;;
23015;SDS011;11674;52.428;13.584;2023-06-22T12:41:34;4.07;;;2.20;;
23015;SDS011;11674;52.428;13.584;2023-06-22T12:46:41;3.58;;;2.60;;
23015;SDS011;11674;52.428;13.584;2023-06-22T12:51:48;3.70;;;2.50;;
23015;SDS011;11674;52.428;13.584;2023-06-22T12:56:55;2.60;;;2.40;;
23015;SDS011;11674;52.428;13.584;2023-06-22T13:02:02;6.00;;;2.28;;
23015;SDS011;11674;52.428;13.584;2023-06-22T13:07:09;4.90;;;3.00;;
23015;SDS011;11674;52.428;13.584;2023-06-22T13:12:16;3.03;;;2.70;;
23015;SDS011;11674;52.428;13.584;2023-06-22T13:17:23;3.40;;;2.78;;
23015;SDS011;11674;52.428;13.584;2023-06-22T13:22:33;4.55;;;3.08;;
23015;SDS011;11674;52.428;13.584;2023-06-22T13:27:42;3.85;;;2.75;;
23015;SDS011;11674;52.428;13.584;2023-06-22T13:32:49;3.00;;;2.70;;
23015;SDS011;11674;52.428;13.584;2023-06-22T13:37:56;3.55;;;2.70;;
23015;SDS011;11674;52.428;13.584;2023-06-22T13:43:03;3.55;;;2.55;;
23015;SDS011;11674;52.428;13.584;2023-06-22T13:48:19;3.50;;;2.83;;
23015;SDS011;11674;52.428;13.584;2023-06-22T13:53:27;3.80;;;3.00;;
23015;SDS011;11674;52.428;13.584;2023-06-22T13:58:34;3.25;;;2.95;;
23015;SDS011;11674;52.428;13.584;2023-06-22T14:03:41;3.90;;;2.85;;
23015;SDS011;11674;52.428;13.584;2023-06-22T14:08:48;6.95;;;2.88;;
23015;SDS011;11674;52.428;13.584;2023-06-22T14:13:55;7.72;;;3.17;;
23015;SDS011;11674;52.428;13.584;2023-06-22T14:19:02;6.32;;;3.25;;
23015;SDS011;11674;52.428;13.584;2023-06-22T14:24:09;5.13;;;3.53;;
23015;SDS011;11674;52.428;13.584;2023-06-22T14:29:16;4.28;;;3.25;;
23015;SDS011;11674;52.428;13.584;2023-06-22T14:34:23;7.72;;;3.20;;
23015;SDS011;11674;52.428;13.584;2023-06-22T14:39:30;4.43;;;3.08;;
23015;SDS011;11674;52.428;13.584;2023-06-22T14:44:37;3.78;;;3.38;;
23015;SDS011;11674;52.428;13.584;2023-06-22T14:49:44;5.70;;;3.33;;
23015;SDS011;11674;52.428;13.584;2023-06-22T14:54:51;3.33;;;2.80;;
23015;SDS011;11674;52.428;13.584;2023-06-22T14:59:58;5.55;;;3.00;;
23015;SDS011;11674;52.428;13.584;2023-06-22T15:05:05;5.03;;;3.30;;
23015;SDS011;11674;52.428;13.584;2023-06-22T15:10:12;4.70;;;3.30;;
23015;SDS011;11674;52.428;13.584;2023-06-22T15:15:19;4.28;;;3.00;;
23015;SDS011;11674;52.428;13.584;2023-06-22T15:20:26;6.43;;;3.60;;
23015;SDS011;11674;52.428;13.584;2023-06-22T15:25:33;7.60;;;3.30;;
23015;SDS011;11674;52.428;13.584;2023-06-22T15:30:40;4.03;;;3.38;;
23015;SDS011;11674;52.428;13.584;2023-06-22T15:35:47;4.80;;;3.28;;
23015;SDS011;11674;52.428;13.584;2023-06-22T15:40:54;6.97;;;3.05;;
23015;SDS011;11674;52.428;13.584;2023-06-22T15:46:01;3.83;;;3.42;;
23015;SDS011;11674;52.428;13.584;2023-06-22T15:51:08;3.72;;;3.10;;
23015;SDS011;11674;52.428;13.584;2023-06-22T15:56:15;3.92;;;3.20;;
23015;SDS011;11674;52.428;13.584;2023-06-22T16:01:22;4.00;;;3.15;;
23015;SDS011;11674;52.428;13.584;2023-06-22T16:06:29;6.03;;;3.50;;
23015;SDS011;11674;52.428;13.584;2023-06-22T16:11:36;4.57;;;3.10;;
23015;SDS011;11674;52.428;13.584;2023-06-22T16:16:43;3.88;;;3.47;;
23015;SDS011;11674;52.428;13.584;2023-06-22T16:21:50;3.92;;;3.10;;
23015;SDS011;11674;52.428;13.584;2023-06-22T16:26:57;3.92;;;3.50;;
23015;SDS011;11674;52.428;13.584;2023-06-22T16:32:05;5.40;;;3.40;;
23015;SDS011;11674;52.428;13.584;2023-06-22T16:37:13;3.97;;;3.50;;
23015;SDS011;11674;52.428;13.584;2023-06-22T16:42:20;5.45;;;3.40;;
23015;SDS011;11674;52.428;13.584;2023-06-22T16:47:27;3.47;;;3.08;;
23015;SDS011;11674;52.428;13.584;2023-06-22T16:52:34;3.95;;;3.40;;
23015;SDS011;11674;52.428;13.584;2023-06-22T16:57:41;6.38;;;3.47;;
23015;SDS011;11674;52.428;13.584;2023-06-22T17:02:49;4.45;;;3.60;;
23015;SDS011;11674;52.428;13.584;2023-06-22T17:07:57;5.00;;;3.40;;
23015;SDS011;11674;52.428;13.584;2023-06-22T17:13:08;4.20;;;3.78;;
23015;SDS011;11674;52.428;13.584;2023-06-22T17:18:15;3.95;;;3.40;;
23015;SDS011;11674;52.428;13.584;2023-06-22T17:23:23;6.80;;;3.22;;
23015;SDS011;11674;52.428;13.584;2023-06-22T17:28:45;6.22;;;3.78;;
23015;SDS011;11674;52.428;13.584;2023-06-22T17:33:56;3.85;;;3.28;;
23015;SDS011;11674;52.428;13.584;2023-06-22T17:39:03;5.68;;;3.40;;
23015;SDS011;11674;52.428;13.584;2023-06-22T17:44:10;4.18;;;3.45;;
23015;SDS011;11674;52.428;13.584;2023-06-22T17:49:17;5.63;;;3.30;;
23015;SDS011;11674;52.428;13.584;2023-06-22T17:54:28;7.65;;;3.60;;
23015;SDS011;11674;52.428;13.584;2023-06-22T17:59:36;5.55;;;3.65;;
23015;SDS011;11674;52.428;13.584;2023-06-22T18:04:43;5.75;;;4.15;;
23015;SDS011;11674;52.428;13.584;2023-06-22T18:09:50;4.38;;;3.42;;
23015;SDS011;11674;52.428;13.584;2023-06-22T18:14:58;4.22;;;3.42;;
23015;SDS011;11674;52.428;13.584;2023-06-22T18:20:06;4.15;;;3.50;;
23015;SDS011;11674;52.428;13.584;2023-06-22T18:25:14;4.18;;;3.38;;
23015;SDS011;11674;52.428;13.584;2023-06-22T18:30:21;4.05;;;3.50;;
23015;SDS011;11674;52.428;13.584;2023-06-22T18:35:28;4.35;;;3.45;;
23015;SDS011;11674;52.428;13.584;2023-06-22T18:40:35;5.22;;;3.75;;
23015;SDS011;11674;52.428;13.584;2023-06-22T18:45:42;5.10;;;3.85;;
23015;SDS011;11674;52.428;13.584;2023-06-22T18:50:49;7.07;;;4.60;;
23015;SDS011;11674;52.428;13.584;2023-06-22T18:56:10;7.97;;;4.03;;
23015;SDS011;11674;52.428;13.584;2023-06-22T19:01:18;5.72;;;4.53;;
23015;SDS011;11674;52.428;13.584;2023-06-22T19:17:23;8.20;;;5.85;;
23015;SDS011;11674;52.428;13.584;2023-06-22T19:22:43;10.50;;;8.20;;
23015;SDS011;11674;52.428;13.584;2023-06-22T19:27:53;6.47;;;4.00;;
23015;SDS011;11674;52.428;13.584;2023-06-22T19:33:00;5.43;;;3.70;;
23015;SDS011;11674;52.428;13.584;2023-06-22T19:38:07;5.35;;;3.45;;
23015;SDS011;11674;52.428;13.584;2023-06-22T19:43:15;3.80;;;3.17;;
23015;SDS011;11674;52.428;13.584;2023-06-22T19:48:26;6.63;;;4.10;;
23015;SDS011;11674;52.428;13.584;2023-06-22T19:53:34;4.03;;;3.45;;
23015;SDS011;11674;52.428;13.584;2023-06-22T19:58:46;4.50;;;3.60;;
23015;SDS011;11674;52.428;13.584;2023-06-22T20:03:54;4.63;;;3.67;;
23015;SDS011;11674;52.428;13.584;2023-06-22T20:09:02;5.20;;;3.85;;
23015;SDS011;11674;52.428;13.584;2023-06-22T20:14:09;4.82;;;3.70;;
23015;SDS011;11674;52.428;13.584;2023-06-22T20:19:16;4.43;;;3.92;;
23015;SDS011;11674;52.428;13.584;2023-06-22T20:24:23;8.55;;;3.95;;
23015;SDS011;11674;52.428;13.584;2023-06-22T20:29:33;4.00;;;3.60;;
23015;SDS011;11674;52.428;13.584;2023-06-22T20:34:41;6.50;;;4.00;;
23015;SDS011;11674;52.428;13.584;2023-06-22T20:39:49;4.55;;;3.60;;
23015;SDS011;11674;52.428;13.584;2023-06-22T20:44:56;6.57;;;4.47;;
23015;SDS011;11674;52.428;13.584;2023-06-22T20:50:03;8.10;;;4.40;;
23015;SDS011;11674;52.428;13.584;2023-06-22T20:55:10;15.45;;;6.13;;
23015;SDS011;11674;52.428;13.584;2023-06-22T21:00:17;12.90;;;5.30;;
23015;SDS011;11674;52.428;13.584;2023-06-22T21:05:25;16.92;;;5.97;;
23015;SDS011;11674;52.428;13.584;2023-06-22T21:10:32;7.57;;;5.32;;
23015;SDS011;11674;52.428;13.584;2023-06-22T21:15:39;11.88;;;5.80;;
23015;SDS011;11674;52.428;13.584;2023-06-22T21:20:46;12.93;;;6.57;;
23015;SDS011;11674;52.428;13.584;2023-06-22T21:25:53;16.60;;;8.43;;
23015;SDS011;11674;52.428;13.584;2023-06-22T21:31:00;12.25;;;7.57;;
23015;SDS011;11674;52.428;13.584;2023-06-22T21:36:07;10.73;;;7.45;;
23015;SDS011;11674;52.428;13.584;2023-06-22T21:41:14;11.55;;;8.18;;
23015;SDS011;11674;52.428;13.584;2023-06-22T21:46:21;13.57;;;7.03;;
23015;SDS011;11674;52.428;13.584;2023-06-22T21:51:28;18.33;;;9.43;;
23015;SDS011;11674;52.428;13.584;2023-06-22T21:56:36;13.48;;;10.05;;
23015;SDS011;11674;52.428;13.584;2023-06-22T22:01:43;16.25;;;7.13;;
23015;SDS011;11674;52.428;13.584;2023-06-22T22:06:50;12.95;;;7.55;;
23015;SDS011;11674;52.428;13.584;2023-06-22T22:11:57;13.30;;;8.85;;
23015;SDS011;11674;52.428;13.584;2023-06-22T22:17:04;11.98;;;9.13;;
23015;SDS011;11674;52.428;13.584;2023-06-22T22:22:11;15.60;;;10.10;;
23015;SDS011;11674;52.428;13.584;2023-06-22T22:27:18;13.95;;;9.50;;
23015;SDS011;11674;52.428;13.584;2023-06-22T22:32:25;15.48;;;9.70;;
23015;SDS011;11674;52.428;13.584;2023-06-22T22:37:32;12.52;;;9.85;;
23015;SDS011;11674;52.428;13.584;2023-06-22T22:42:39;12.40;;;9.15;;
23015;SDS011;11674;52.428;13.584;2023-06-22T22:47:46;16.48;;;9.43;;
23015;SDS011;11674;52.428;13.584;2023-06-22T22:52:53;11.35;;;8.45;;
23015;SDS011;11674;52.428;13.584;2023-06-22T22:58:00;10.25;;;8.07;;
23015;SDS011;11674;52.428;13.584;2023-06-22T23:03:07;16.35;;;8.13;;
23015;SDS011;11674;52.428;13.584;2023-06-22T23:08:14;9.55;;;7.60;;
23015;SDS011;11674;52.428;13.584;2023-06-22T23:13:21;11.35;;;7.53;;
23015;SDS011;11674;52.428;13.584;2023-06-22T23:18:28;10.73;;;8.07;;
23015;SDS011;11674;52.428;13.584;2023-06-22T23:23:35;13.55;;;6.63;;
23015;SDS011;11674;52.428;13.584;2023-06-22T23:28:42;8.63;;;7.10;;
23015;SDS011;11674;52.428;13.584;2023-06-22T23:33:49;7.72;;;6.68;;
23015;SDS011;11674;52.428;13.584;2023-06-22T23:38:56;9.95;;;6.68;;
23015;SDS011;11674;52.428;13.584;2023-06-22T23:44:03;12.95;;;6.68;;
23015;SDS011;11674;52.428;13.584;2023-06-22T23:49:10;8.60;;;6.57;;
23015;SDS011;11674;52.428;13.584;2023-06-22T23:54:17;13.70;;;9.38;;
23015;SDS011;11674;52.428;13.584;2023-06-22T23:59:24;8.63;;;6.07;;
